Time;durP1;ratioP1;P1;durP2;ratioP2;P2;SDS_P1;SDS_P2;PMS_P1;PMS_P2;Temp;Humidity;BMP_temperature;BMP_pressure;BME280_temperature;BME280_humidity;BME280_pressure;Samples;Min_cycle;Max_cycle;Signal;HPM_P1;HPM_P2
2022/11/09 00:00:31;;;;;;;0.85;0.30;;;18.50;71.40;;;;;;5005597;28;20134;-13
2022/11/09 00:02:57;;;;;;;2.00;0.30;;;18.50;70.70;;;;;;5006529;28;20518;-13
2022/11/09 00:05:22;;;;;;;0.50;0.40;;;18.50;70.70;;;;;;4998090;28;20069;-13
2022/11/09 00:07:48;;;;;;;1.20;0.47;;;18.50;70.90;;;;;;4998580;28;20069;-13
2022/11/09 00:10:14;;;;;;;0.57;0.28;;;18.50;70.90;;;;;;4997631;28;20085;-13
2022/11/09 00:12:40;;;;;;;0.95;0.45;;;18.50;70.90;;;;;;4994940;28;20073;-13
2022/11/09 00:15:05;;;;;;;0.52;0.30;;;18.40;71.00;;;;;;4995584;28;20030;-13
2022/11/09 00:17:31;;;;;;;0.40;0.30;;;18.40;71.00;;;;;;4991467;28;20039;-14
2022/11/09 00:19:57;;;;;;;0.32;0.28;;;18.40;71.10;;;;;;4984594;28;20038;-13
2022/11/09 00:22:22;;;;;;;0.57;0.40;;;18.30;71.10;;;;;;4998149;28;20117;-13
2022/11/09 00:24:48;;;;;;;0.28;0.20;;;18.40;71.20;;;;;;4994591;28;20038;-12
2022/11/09 00:27:13;;;;;;;0.52;0.30;;;18.30;71.20;;;;;;5011477;28;20030;-13
2022/11/09 00:29:39;;;;;;;0.65;0.30;;;18.40;71.10;;;;;;5005224;28;20015;-15
2022/11/09 00:32:04;;;;;;;0.60;0.20;;;18.30;71.20;;;;;;5011877;28;20493;-13
2022/11/09 00:34:30;;;;;;;0.50;0.40;;;18.30;71.30;;;;;;5015347;28;20046;-13
2022/11/09 00:36:56;;;;;;;0.50;0.20;;;18.30;71.40;;;;;;5009702;28;20045;-13
2022/11/09 00:39:21;;;;;;;0.47;0.30;;;18.30;72.10;;;;;;5010848;28;20053;-13
2022/11/09 00:41:47;;;;;;;0.57;0.38;;;18.30;71.40;;;;;;4999027;28;20026;-13
2022/11/09 00:44:12;;;;;;;1.02;0.45;;;18.30;71.30;;;;;;5001077;28;20036;-13
2022/11/09 00:46:38;;;;;;;0.35;0.20;;;18.30;71.30;;;;;;5002496;28;20468;-13
2022/11/09 00:49:03;;;;;;;0.40;0.40;;;18.30;71.40;;;;;;4998340;28;20041;-13
2022/11/09 00:51:29;;;;;;;0.52;0.20;;;18.30;71.50;;;;;;4996341;28;20042;-13
2022/11/09 00:53:56;;;;;;;0.50;0.30;;;18.30;71.40;;;;;;4997232;28;20121;-13
2022/11/09 00:56:21;;;;;;;0.88;0.40;;;18.30;71.30;;;;;;5000983;28;20038;-13
2022/11/09 00:58:47;;;;;;;0.95;0.40;;;18.30;71.40;;;;;;5010060;28;20045;-13
2022/11/09 01:01:15;;;;;;;0.57;0.30;;;18.30;71.50;;;;;;5011703;28;20405;-13
2022/11/09 01:03:40;;;;;;;0.95;0.47;;;18.30;71.50;;;;;;4995510;28;20415;-14
2022/11/09 01:06:06;;;;;;;0.52;0.28;;;18.30;71.50;;;;;;5008058;28;20034;-13
2022/11/09 01:08:33;;;;;;;0.70;0.30;;;18.20;71.50;;;;;;5006876;28;20038;-20
2022/11/09 01:11:05;;;;;;;0.43;0.30;;;18.20;71.50;;;;;;5009086;28;20045;-13
2022/11/09 01:13:31;;;;;;;0.57;0.38;;;18.30;71.60;;;;;;5015940;28;20122;-12
2022/11/09 01:15:56;;;;;;;0.50;0.30;;;18.30;71.60;;;;;;5011864;28;20590;-13
2022/11/09 01:18:22;;;;;;;0.22;0.20;;;18.30;71.70;;;;;;5014166;28;20038;-14
2022/11/09 01:20:48;;;;;;;0.20;0.20;;;18.30;71.40;;;;;;5013299;28;20509;-13
2022/11/09 01:23:15;;;;;;;1.05;0.38;;;18.20;71.60;;;;;;5026675;28;20291;-13
2022/11/09 01:25:40;;;;;;;0.43;0.30;;;18.30;71.50;;;;;;5011069;28;20048;-14
2022/11/09 01:28:06;;;;;;;0.28;0.20;;;18.30;71.60;;;;;;5005282;28;20931;-17
2022/11/09 01:30:36;;;;;;;0.65;0.38;;;18.30;72.40;;;;;;5008223;28;20026;-12
2022/11/09 01:33:03;;;;;;;0.40;0.20;;;18.30;71.80;;;;;;4997524;28;20042;-12
2022/11/09 01:35:28;;;;;;;0.35;0.35;;;18.20;71.60;;;;;;5024958;28;20037;-14
2022/11/09 01:37:54;;;;;;;0.47;0.25;;;18.20;71.50;;;;;;5006885;28;20053;-12
2022/11/09 01:40:20;;;;;;;0.45;0.28;;;18.30;71.50;;;;;;4999596;28;20136;-14
2022/11/09 01:42:45;;;;;;;0.40;0.40;;;18.30;71.70;;;;;;5006771;28;20041;-13
2022/11/09 01:45:17;;;;;;;1.05;0.40;;;18.20;71.50;;;;;;5003035;28;20783;-12
2022/11/09 01:47:46;;;;;;;0.50;0.38;;;18.30;71.60;;;;;;4994477;28;20038;-17
2022/11/09 01:50:11;;;;;;;0.60;0.25;;;18.20;71.50;;;;;;5041413;28;20112;-24
2022/11/09 01:52:39;;;;;;;0.68;0.40;;;18.30;71.70;;;;;;5018869;28;20511;-13
2022/11/09 01:55:08;;;;;;;0.35;0.30;;;18.30;71.40;;;;;;4995741;28;20179;-13
2022/11/09 01:57:37;;;;;;;0.47;0.32;;;18.30;71.40;;;;;;5024444;28;20046;-14
2022/11/09 02:00:08;;;;;;;0.65;0.40;;;18.30;71.60;;;;;;4977539;28;20045;-13
2022/11/09 02:02:34;;;;;;;0.43;0.30;;;18.20;71.50;;;;;;5002261;28;20046;-13
2022/11/09 02:05:05;;;;;;;0.85;0.40;;;18.20;71.60;;;;;;4993894;28;20038;-13
2022/11/09 02:07:31;;;;;;;0.90;0.32;;;18.20;71.80;;;;;;5000270;28;20132;-23
2022/11/09 02:09:57;;;;;;;0.40;0.30;;;18.20;71.70;;;;;;4993383;28;20579;-13
2022/11/09 02:12:22;;;;;;;0.30;0.20;;;18.20;71.60;;;;;;4997863;28;20049;-13
2022/11/09 02:14:48;;;;;;;0.30;0.30;;;18.20;71.70;;;;;;5000869;28;20038;-14
2022/11/09 02:17:14;;;;;;;0.32;0.20;;;18.20;71.50;;;;;;5012057;28;20117;-13
2022/11/09 02:19:39;;;;;;;0.40;0.30;;;18.20;71.50;;;;;;5008847;28;20437;-14
2022/11/09 02:22:05;;;;;;;0.52;0.28;;;18.20;71.60;;;;;;5005592;28;20183;-12
2022/11/09 02:24:31;;;;;;;0.40;0.20;;;18.20;71.60;;;;;;5012967;28;20415;-13
2022/11/09 02:26:57;;;;;;;0.50;0.20;;;18.20;71.70;;;;;;5005648;28;20061;-13
2022/11/09 02:29:25;;;;;;;1.05;0.30;;;18.20;71.50;;;;;;4995606;28;20049;-13
2022/11/09 02:31:54;;;;;;;0.25;0.22;;;18.20;71.50;;;;;;4992134;28;20038;-13
2022/11/09 02:34:20;;;;;;;0.60;0.40;;;18.20;71.50;;;;;;5008135;28;20050;-13
2022/11/09 02:36:46;;;;;;;0.17;0.17;;;18.20;71.50;;;;;;5007784;28;20525;-13
2022/11/09 02:39:12;;;;;;;0.40;0.30;;;18.20;71.80;;;;;;5010802;28;20096;-13
2022/11/09 02:41:46;;;;;;;0.40;0.28;;;18.20;71.60;;;;;;4998900;28;20510;-13
2022/11/09 02:44:12;;;;;;;;;;;18.20;71.70;;;;;;5010021;28;20053;-20
2022/11/09 02:46:38;;;;;;;0.77;0.40;;;18.20;71.60;;;;;;5030369;28;19979;-12
2022/11/09 02:49:03;;;;;;;0.50;0.20;;;18.20;71.50;;;;;;4997593;28;20102;-13
2022/11/09 02:51:29;;;;;;;0.73;0.30;;;18.20;71.60;;;;;;4992922;28;20133;-13
2022/11/09 02:53:55;;;;;;;0.90;0.32;;;18.20;71.60;;;;;;4992372;28;20498;-14
2022/11/09 02:56:20;;;;;;;1.27;0.35;;;18.20;71.60;;;;;;4993405;28;20042;-13
2022/11/09 02:58:46;;;;;;;0.30;0.28;;;18.20;71.60;;;;;;4996255;28;20040;-13
2022/11/09 03:01:11;;;;;;;0.40;0.30;;;18.20;71.60;;;;;;4999061;28;20145;-14
2022/11/09 03:03:37;;;;;;;0.50;0.30;;;18.20;71.50;;;;;;5010655;28;20560;-13
2022/11/09 03:06:03;;;;;;;0.68;0.30;;;18.20;71.60;;;;;;5013341;28;20046;-13
2022/11/09 03:08:29;;;;;;;0.22;0.20;;;18.20;71.70;;;;;;5005148;28;20058;-13
2022/11/09 03:10:54;;;;;;;0.32;0.30;;;18.10;71.60;;;;;;5012401;28;20506;-15
2022/11/09 03:13:20;;;;;;;0.60;0.30;;;18.20;71.50;;;;;;4998159;28;20104;-13
2022/11/09 03:15:45;;;;;;;0.50;0.30;;;18.20;71.70;;;;;;4993347;28;20045;-13
2022/11/09 03:18:11;;;;;;;1.02;0.30;;;18.20;71.70;;;;;;4993360;28;20050;-13
2022/11/09 03:20:36;;;;;;;0.30;0.10;;;18.20;71.60;;;;;;5001881;28;20069;-13
2022/11/09 03:23:02;;;;;;;0.40;0.22;;;18.20;71.60;;;;;;5006428;28;20391;-14
2022/11/09 03:25:28;;;;;;;0.40;0.22;;;18.20;71.60;;;;;;5000430;28;20045;-13
2022/11/09 03:28:00;;;;;;;0.65;0.30;;;18.20;71.60;;;;;;5011346;28;20042;-13
2022/11/09 03:30:26;;;;;;;0.60;0.40;;;18.20;71.50;;;;;;5015906;28;20433;-13
2022/11/09 03:32:57;;;;;;;0.40;0.32;;;18.10;71.60;;;;;;5032932;28;20060;-13
2022/11/09 03:35:23;;;;;;;1.27;0.20;;;18.20;71.60;;;;;;5013030;28;20517;-12
2022/11/09 03:37:49;;;;;;;0.63;0.20;;;18.20;71.50;;;;;;5009736;28;20041;-14
2022/11/09 03:40:14;;;;;;;0.30;0.20;;;18.20;71.70;;;;;;4999828;28;20403;-13
2022/11/09 03:42:47;;;;;;;0.57;0.40;;;18.20;71.60;;;;;;5002286;28;20095;-22
2022/11/09 03:45:13;;;;;;;0.52;0.20;;;18.10;71.50;;;;;;5013113;28;20047;-13
2022/11/09 03:47:42;;;;;;;0.30;0.13;;;18.20;71.60;;;;;;5009738;28;20046;-13
2022/11/09 03:50:08;;;;;;;0.40;0.40;;;18.20;71.60;;;;;;5004404;28;20153;-13
2022/11/09 03:52:34;;;;;;;0.75;0.40;;;18.10;71.60;;;;;;5005376;28;20108;-13
2022/11/09 03:54:59;;;;;;;0.45;0.20;;;18.20;71.70;;;;;;5014565;28;20453;-19
2022/11/09 03:57:25;;;;;;;0.50;0.32;;;18.10;71.70;;;;;;5010889;28;20060;-13
2022/11/09 03:59:50;;;;;;;0.60;0.30;;;18.10;71.80;;;;;;4998535;28;20046;-13
2022/11/09 04:02:16;;;;;;;0.40;0.20;;;18.10;71.50;;;;;;5017166;28;20461;-13
2022/11/09 04:04:42;;;;;;;0.47;0.30;;;18.10;71.70;;;;;;5011847;28;20065;-12
2022/11/09 04:07:11;;;;;;;0.38;0.35;;;18.20;71.80;;;;;;5016325;28;20080;-13
2022/11/09 04:09:37;;;;;;;0.40;0.40;;;18.10;71.80;;;;;;5007701;28;20077;-14
2022/11/09 04:12:03;;;;;;;0.20;0.10;;;18.10;71.50;;;;;;4996875;28;20034;-13
2022/11/09 04:14:29;;;;;;;0.70;0.20;;;18.20;71.80;;;;;;5010201;28;20054;-13
2022/11/09 04:16:55;;;;;;;0.30;0.25;;;18.20;71.80;;;;;;5021203;28;20391;-12
2022/11/09 04:19:20;;;;;;;0.65;0.20;;;18.10;71.60;;;;;;5016464;28;20056;-13
2022/11/09 04:21:46;;;;;;;0.70;0.38;;;18.20;71.60;;;;;;5015624;28;20073;-13
2022/11/09 04:24:11;;;;;;;0.40;0.20;;;18.10;71.60;;;;;;5011028;28;20392;-13
2022/11/09 04:26:37;;;;;;;0.40;0.20;;;18.20;71.50;;;;;;5010233;28;20049;-13
2022/11/09 04:29:02;;;;;;;0.30;0.30;;;18.10;71.60;;;;;;5014870;28;20156;-16
2022/11/09 04:31:28;;;;;;;1.42;0.25;;;18.10;71.70;;;;;;5016463;28;20037;-15
2022/11/09 04:33:54;;;;;;;0.35;0.30;;;18.10;71.80;;;;;;5015192;28;20394;-13
2022/11/09 04:36:19;;;;;;;0.30;0.30;;;18.10;71.60;;;;;;5010386;28;20068;-13
2022/11/09 04:38:45;;;;;;;0.40;0.32;;;18.10;71.70;;;;;;5000204;28;20046;-14
2022/11/09 04:41:11;;;;;;;0.40;0.13;;;18.10;71.50;;;;;;5013780;28;20038;-13
2022/11/09 04:43:36;;;;;;;0.60;0.20;;;18.10;71.70;;;;;;5012328;28;20452;-15
2022/11/09 04:46:02;;;;;;;0.43;0.32;;;18.10;71.60;;;;;;5013050;28;20045;-12
2022/11/09 04:48:28;;;;;;;0.50;0.30;;;18.10;71.70;;;;;;5006233;28;20061;-14
2022/11/09 04:51:05;;;;;;;0.40;0.30;;;18.10;71.50;;;;;;5009713;28;20042;-13
2022/11/09 04:53:31;;;;;;;0.50;0.17;;;18.10;71.70;;;;;;5003861;28;20454;-15
2022/11/09 04:55:57;;;;;;;0.38;0.20;;;18.10;71.60;;;;;;4991941;28;20118;-13
2022/11/09 04:58:22;;;;;;;0.75;0.40;;;18.10;71.60;;;;;;5000312;28;20154;-13
2022/11/09 05:00:48;;;;;;;0.80;0.47;;;18.10;71.60;;;;;;5016077;28;20077;-13
2022/11/09 05:03:13;;;;;;;0.52;0.28;;;18.10;71.40;;;;;;5008304;28;20060;-13
2022/11/09 05:05:39;;;;;;;0.32;0.20;;;18.10;71.50;;;;;;5010203;28;20049;-13
2022/11/09 05:08:05;;;;;;;0.20;0.10;;;18.10;71.50;;;;;;5007737;28;20099;-13
2022/11/09 05:10:31;;;;;;;0.57;0.30;;;18.10;71.50;;;;;;5006899;28;20518;-18
2022/11/09 05:13:01;;;;;;;1.17;0.30;;;18.10;71.60;;;;;;5008024;28;20046;-13
2022/11/09 05:15:27;;;;;;;0.30;0.25;;;18.10;71.70;;;;;;4995726;28;20519;-13
2022/11/09 05:17:52;;;;;;;0.60;0.20;;;18.10;71.50;;;;;;4994829;28;20516;-13
2022/11/09 05:20:18;;;;;;;0.28;0.20;;;18.10;71.60;;;;;;5000510;28;20054;-13
2022/11/09 05:25:28;;;;;;;0.38;0.20;;;18.10;71.50;;;;;;5015563;28;20564;-12
2022/11/09 05:27:53;;;;;;;0.40;0.30;;;18.10;71.60;;;;;;5005940;28;20057;-13
2022/11/09 05:30:19;;;;;;;0.75;0.22;;;18.00;71.70;;;;;;4995557;28;20441;-13
2022/11/09 05:32:45;;;;;;;0.60;0.30;;;18.10;71.50;;;;;;5002710;28;20053;-21
2022/11/09 05:35:10;;;;;;;0.30;0.20;;;18.10;71.70;;;;;;5018584;28;20049;-13
2022/11/09 05:37:39;;;;;;;0.30;0.20;;;18.10;71.50;;;;;;5003241;28;20161;-13
2022/11/09 05:40:06;;;;;;;0.20;0.10;;;18.10;71.40;;;;;;5012894;28;20111;-13
2022/11/09 05:42:32;;;;;;;0.50;0.20;;;18.10;71.60;;;;;;5010614;28;20041;-23
2022/11/09 05:44:57;;;;;;;0.35;0.20;;;18.10;71.70;;;;;;5006466;28;20045;-14
2022/11/09 05:47:23;;;;;;;0.20;0.20;;;18.10;71.50;;;;;;5012354;28;20038;-13
2022/11/09 05:49:48;;;;;;;0.30;0.20;;;18.10;71.60;;;;;;5013828;28;20441;-13
2022/11/09 05:52:14;;;;;;;0.75;0.30;;;18.10;71.40;;;;;;5007915;28;20058;-13
2022/11/09 05:54:40;;;;;;;0.30;0.15;;;18.10;71.60;;;;;;5006917;28;20072;-13
2022/11/09 05:57:05;;;;;;;0.52;0.20;;;18.10;71.50;;;;;;5011291;28;20046;-14
2022/11/09 05:59:31;;;;;;;0.68;0.30;;;18.00;71.40;;;;;;5009614;28;20391;-13
2022/11/09 06:01:57;;;;;;;0.40;0.20;;;18.10;71.50;;;;;;5009298;28;20038;-13
2022/11/09 06:04:22;;;;;;;0.70;0.13;;;18.00;71.50;;;;;;5011389;28;20042;-13
2022/11/09 06:06:48;;;;;;;0.22;0.20;;;18.10;71.50;;;;;;5005353;28;20092;-13
2022/11/09 06:09:13;;;;;;;0.93;0.20;;;18.10;71.50;;;;;;5007361;28;20038;-13
2022/11/09 06:11:39;;;;;;;0.47;0.30;;;18.10;71.60;;;;;;4992443;28;20568;-13
2022/11/09 06:14:04;;;;;;;0.40;0.13;;;18.10;71.50;;;;;;5002098;28;20052;-12
2022/11/09 06:16:30;;;;;;;0.40;0.20;;;18.00;71.70;;;;;;5016016;28;20038;-13
2022/11/09 06:18:55;;;;;;;0.98;0.20;;;18.00;71.50;;;;;;5013758;28;20065;-13
2022/11/09 06:21:21;;;;;;;0.32;0.10;;;18.00;71.50;;;;;;4999832;28;20286;-13
2022/11/09 06:23:47;;;;;;;0.47;0.20;;;18.10;71.50;;;;;;5008968;28;20038;-13
2022/11/09 06:26:13;;;;;;;0.40;0.30;;;18.00;71.40;;;;;;4998922;28;20034;-13
2022/11/09 06:28:39;;;;;;;0.47;0.20;;;18.10;71.50;;;;;;4994980;28;20745;-13
2022/11/09 06:31:06;;;;;;;0.47;0.30;;;18.00;71.40;;;;;;4992256;28;20473;-13
2022/11/09 06:33:33;;;;;;;0.30;0.20;;;18.00;71.40;;;;;;4993376;28;20043;-13
2022/11/09 06:35:58;;;;;;;0.43;0.30;;;18.00;71.50;;;;;;4993788;28;20038;-12
2022/11/09 06:38:27;;;;;;;0.90;0.32;;;18.00;71.60;;;;;;4992808;28;20108;-13
2022/11/09 06:40:53;;;;;;;0.43;0.20;;;18.00;71.50;;;;;;4992455;28;20501;-14
2022/11/09 06:43:19;;;;;;;0.43;0.20;;;18.00;71.40;;;;;;4990412;28;20069;-13
2022/11/09 06:45:45;;;;;;;0.38;0.20;;;18.00;71.60;;;;;;4998579;28;20521;-13
2022/11/09 06:48:10;;;;;;;0.32;0.25;;;18.00;71.50;;;;;;4653907;28;10000116;-13
2022/11/09 06:50:36;;;;;;;0.30;0.30;;;18.00;71.40;;;;;;5001306;28;20054;-13
2022/11/09 06:53:05;;;;;;;0.45;0.22;;;18.00;71.30;;;;;;4985161;28;20514;-23
2022/11/09 06:55:31;;;;;;;0.15;0.10;;;18.00;71.30;;;;;;4987753;28;20046;-13
2022/11/09 06:57:57;;;;;;;0.32;0.20;;;18.00;71.40;;;;;;4984924;28;20054;-24
2022/11/09 07:00:23;;;;;;;0.15;0.15;;;18.10;71.30;;;;;;4992057;28;20058;-14
2022/11/09 07:02:49;;;;;;;0.30;0.20;;;18.20;71.10;;;;;;5003299;28;20069;-13
2022/11/09 07:05:15;;;;;;;2.08;0.20;;;18.30;70.80;;;;;;4998887;28;20055;-13
2022/11/09 07:07:41;;;;;;;0.60;0.20;;;18.30;70.70;;;;;;4989816;28;20046;-13
2022/11/09 07:10:06;;;;;;;1.38;0.35;;;18.40;70.60;;;;;;4632520;28;10000034;-13
2022/11/09 07:12:33;;;;;;;0.30;0.25;;;18.30;70.40;;;;;;4984945;28;20486;-13
2022/11/09 07:14:59;;;;;;;0.93;0.28;;;18.20;70.70;;;;;;4982585;28;20050;-13
2022/11/09 07:17:24;;;;;;;0.43;0.22;;;18.20;70.90;;;;;;4987071;28;20050;-13
2022/11/09 07:19:50;;;;;;;0.95;0.30;;;18.30;70.90;;;;;;4982211;28;20057;-14
2022/11/09 07:22:16;;;;;;;0.52;0.17;;;18.40;70.40;;;;;;4990336;28;20078;-13
2022/11/09 07:24:41;;;;;;;1.92;0.30;;;18.40;70.20;;;;;;4989185;28;20408;-13
2022/11/09 07:27:07;;;;;;;0.38;0.38;;;18.70;69.40;;;;;;5000361;28;20465;-13
2022/11/09 07:29:32;;;;;;;0.60;0.20;;;18.70;70.00;;;;;;4997964;28;20045;-14
2022/11/09 07:31:58;;;;;;;0.52;0.35;;;18.70;69.10;;;;;;5000970;28;20049;-13
2022/11/09 07:34:23;;;;;;;0.75;0.40;;;18.50;69.70;;;;;;4989833;28;20046;-13
2022/11/09 07:36:52;;;;;;;0.40;0.30;;;18.70;69.60;;;;;;4991531;28;20038;-13
2022/11/09 07:39:18;;;;;;;2.00;0.43;;;18.80;69.00;;;;;;4990115;28;20577;-12
2022/11/09 07:41:47;;;;;;;0.38;0.38;;;18.50;69.70;;;;;;5011700;28;20336;-12
2022/11/09 07:44:16;;;;;;;0.10;0.10;;;18.40;70.30;;;;;;5006445;28;20522;-13
2022/11/09 07:46:43;;;;;;;0.50;0.20;;;18.30;70.40;;;;;;5004653;28;20182;-13
2022/11/09 07:49:08;;;;;;;0.20;0.20;;;18.30;70.50;;;;;;5008011;28;20058;-13
2022/11/09 07:51:34;;;;;;;0.10;0.10;;;18.20;70.50;;;;;;5010279;28;20482;-13
2022/11/09 07:53:59;;;;;;;0.43;0.20;;;18.30;70.60;;;;;;5009637;28;20055;-13
2022/11/09 07:56:25;;;;;;;0.50;0.30;;;18.40;70.00;;;;;;5000974;28;20447;-15
2022/11/09 07:58:51;;;;;;;0.40;0.30;;;18.30;70.30;;;;;;4986489;28;20034;-12
2022/11/09 08:01:16;;;;;;;0.47;0.40;;;18.30;70.70;;;;;;4983689;28;20063;-13
2022/11/09 08:03:42;;;;;;;0.50;0.35;;;18.30;70.70;;;;;;4991201;28;20038;-13
2022/11/09 08:06:07;;;;;;;0.25;0.25;;;18.30;70.70;;;;;;4999919;28;20042;-13
2022/11/09 08:08:33;;;;;;;0.73;0.43;;;18.30;70.60;;;;;;5003296;28;20058;-13
2022/11/09 08:10:58;;;;;;;0.30;0.20;;;18.20;70.80;;;;;;4996131;28;20499;-13
2022/11/09 08:13:24;;;;;;;0.30;0.30;;;18.30;71.70;;;;;;5004039;28;20070;-13
2022/11/09 08:15:50;;;;;;;0.52;0.40;;;18.20;70.90;;;;;;5014358;28;20045;-13
2022/11/09 08:18:18;;;;;;;0.82;0.30;;;18.20;70.80;;;;;;5012135;28;20048;-13
2022/11/09 08:20:43;;;;;;;0.85;0.63;;;18.30;70.70;;;;;;5003115;28;20043;-13
2022/11/09 08:23:13;;;;;;;0.38;0.30;;;18.20;70.70;;;;;;5011845;28;20454;-13
2022/11/09 08:25:39;;;;;;;0.68;0.32;;;18.20;70.90;;;;;;5014828;28;20604;-12
2022/11/09 08:28:04;;;;;;;0.50;0.40;;;18.20;70.90;;;;;;5003517;28;20120;-12
2022/11/09 08:30:30;;;;;;;0.70;0.20;;;18.20;71.00;;;;;;5003841;28;20074;-12
2022/11/09 08:32:57;;;;;;;0.77;0.20;;;18.20;71.00;;;;;;5012322;28;20053;-12
2022/11/09 08:35:23;;;;;;;0.57;0.30;;;18.20;71.00;;;;;;4994940;28;20054;-13
2022/11/09 08:37:49;;;;;;;0.85;0.40;;;18.20;71.00;;;;;;4994672;28;20042;-12
2022/11/09 08:40:17;;;;;;;0.60;0.22;;;18.20;70.90;;;;;;4996207;28;20049;-12
2022/11/09 08:42:43;;;;;;;0.25;0.20;;;18.20;71.10;;;;;;5007876;28;20042;-12
2022/11/09 08:45:09;;;;;;;0.52;0.20;;;18.20;71.10;;;;;;4993760;28;20463;-13
2022/11/09 08:47:34;;;;;;;0.25;0.15;;;18.20;71.10;;;;;;4991466;28;20492;-19
2022/11/09 08:50:03;;;;;;;1.33;0.30;;;18.20;71.10;;;;;;5009784;28;20161;-14
2022/11/09 08:52:28;;;;;;;0.47;0.20;;;18.10;71.10;;;;;;4997144;28;21316;-12
2022/11/09 08:54:54;;;;;;;0.40;0.30;;;18.10;71.10;;;;;;5002337;28;20078;-15
2022/11/09 08:57:20;;;;;;;0.30;0.20;;;18.20;71.90;;;;;;5008460;28;20433;-13
2022/11/09 08:59:45;;;;;;;0.30;0.20;;;18.20;71.90;;;;;;5004579;28;20052;-12
2022/11/09 09:02:11;;;;;;;0.65;0.22;;;18.20;70.70;;;;;;5016999;28;20125;-12
2022/11/09 09:04:37;;;;;;;0.60;0.25;;;18.20;71.00;;;;;;4998304;28;20518;-12
2022/11/09 09:07:03;;;;;;;0.75;0.20;;;18.10;71.00;;;;;;4996557;28;20042;-13
2022/11/09 09:09:28;;;;;;;0.20;0.10;;;18.10;71.20;;;;;;4991633;28;20093;-13
2022/11/09 09:11:54;;;;;;;0.43;0.30;;;18.10;71.10;;;;;;4998083;28;20452;-12
2022/11/09 09:14:19;;;;;;;0.47;0.20;;;18.20;71.30;;;;;;5018276;28;20045;-12
2022/11/09 09:16:45;;;;;;;0.45;0.40;;;18.30;70.60;;;;;;5004713;28;20064;-12
2022/11/09 09:19:11;;;;;;;0.60;0.22;;;18.20;70.70;;;;;;4993940;28;20038;-13
2022/11/09 09:21:36;;;;;;;0.40;0.20;;;18.30;70.60;;;;;;5009135;28;20133;-13
2022/11/09 09:24:02;;;;;;;0.32;0.20;;;18.30;70.40;;;;;;4991833;28;20502;-15
2022/11/09 09:26:27;;;;;;;0.50;0.32;;;18.30;70.50;;;;;;4993958;28;20120;-12
2022/11/09 09:28:53;;;;;;;0.47;0.20;;;18.30;70.40;;;;;;4991249;28;20058;-12
2022/11/09 09:31:18;;;;;;;1.83;0.20;;;18.40;70.30;;;;;;4993441;28;20516;-13
2022/11/09 09:33:45;;;;;;;1.02;0.35;;;18.40;71.20;;;;;;4985914;28;20141;-13
2022/11/09 09:36:18;;;;;;;0.25;0.20;;;18.40;70.30;;;;;;4993039;28;20124;-12
2022/11/09 09:38:43;;;;;;;0.52;0.28;;;18.30;70.30;;;;;;4989809;28;20050;-13
2022/11/09 09:41:24;;;;;;;0.20;0.20;;;18.40;70.40;;;;;;4994720;28;20034;-13
2022/11/09 09:43:52;;;;;;;0.47;0.30;;;18.30;70.30;;;;;;5009051;28;20033;-12
2022/11/09 09:46:30;;;;;;;0.28;0.28;;;18.40;70.30;;;;;;5003818;28;20088;-13
2022/11/09 09:49:03;;;;;;;0.35;0.20;;;18.50;70.20;;;;;;5023864;28;20084;-13
2022/11/09 09:51:33;;;;;;;0.73;0.32;;;18.50;70.20;;;;;;5011956;28;20077;-22
2022/11/09 09:54:11;;;;;;;0.43;0.20;;;18.50;70.10;;;;;;5007235;28;20431;-13
2022/11/09 09:56:38;;;;;;;0.55;0.25;;;18.50;70.00;;;;;;5010757;28;20029;-12
2022/11/09 09:59:32;;;;;;;0.25;0.22;;;18.50;69.90;;;;;;5009720;28;20121;-13
2022/11/09 10:01:58;;;;;;;0.40;0.20;;;18.50;69.90;;;;;;5022720;28;20092;-12
2022/11/09 10:04:39;;;;;;;0.70;0.30;;;18.60;70.60;;;;;;5005161;28;20153;-12
2022/11/09 10:07:18;;;;;;;0.28;0.20;;;18.60;69.90;;;;;;5015746;28;20049;-17
2022/11/09 10:10:11;;;;;;;0.30;0.15;;;18.60;69.90;;;;;;4999292;28;20070;-12
2022/11/09 10:13:15;;;;;;;0.90;0.20;;;18.60;69.80;;;;;;5007271;28;20121;-12
2022/11/09 10:15:54;;;;;;;0.22;0.10;;;18.60;69.70;;;;;;5006205;28;20034;-12
2022/11/09 10:18:31;;;;;;;0.35;0.15;;;18.70;69.60;;;;;;5012661;28;20044;-12
2022/11/09 10:20:57;;;;;;;0.50;0.20;;;18.70;69.60;;;;;;5008912;28;20032;-12
2022/11/09 10:23:44;;;;;;;1.25;0.20;;;18.70;69.60;;;;;;5003648;28;20050;-12
2022/11/09 10:26:18;;;;;;;0.32;0.20;;;18.70;69.60;;;;;;5022408;28;20699;-12
2022/11/09 10:28:44;;;;;;;0.32;0.20;;;18.70;69.60;;;;;;5009908;28;20129;-13
2022/11/09 10:31:16;;;;;;;0.45;0.25;;;18.70;69.60;;;;;;5024903;28;20034;-12
2022/11/09 10:33:42;;;;;;;0.65;0.30;;;18.70;69.60;;;;;;5011863;28;20098;-13
2022/11/09 10:36:13;;;;;;;0.30;0.30;;;18.80;69.70;;;;;;5009716;28;20038;-13
2022/11/09 10:38:44;;;;;;;0.52;0.20;;;18.80;69.50;;;;;;5005514;28;20128;-12
2022/11/09 10:41:32;;;;;;;0.20;0.20;;;18.80;69.50;;;;;;4995571;28;20035;-12
2022/11/09 10:43:58;;;;;;;0.45;0.20;;;18.80;69.50;;;;;;4988757;28;20050;-12
2022/11/09 10:46:23;;;;;;;0.52;0.30;;;18.80;69.50;;;;;;4990430;28;20042;-12
2022/11/09 10:48:49;;;;;;;0.75;0.20;;;18.80;69.40;;;;;;4991569;28;20502;-12
2022/11/09 10:51:45;;;;;;;0.40;0.30;;;18.80;69.50;;;;;;5000353;28;20424;-15
2022/11/09 10:54:26;;;;;;;0.47;0.28;;;18.80;69.40;;;;;;4992144;28;20062;-13
2022/11/09 10:57:16;;;;;;;0.30;0.30;;;18.80;69.40;;;;;;4987709;28;20048;-13
2022/11/09 10:59:51;;;;;;;0.22;0.10;;;18.80;69.40;;;;;;5011308;28;20119;-13
2022/11/09 11:02:25;;;;;;;0.38;0.32;;;18.80;69.40;;;;;;4994409;28;20097;-14
2022/11/09 11:05:06;;;;;;;0.40;0.20;;;18.90;69.30;;;;;;4999804;28;20034;-13
2022/11/09 11:07:33;;;;;;;1.10;0.40;;;18.90;69.40;;;;;;5007188;28;20440;-13
2022/11/09 11:10:14;;;;;;;0.20;0.10;;;18.90;69.30;;;;;;4997999;28;20359;-12
2022/11/09 11:12:40;;;;;;;0.30;0.20;;;18.90;69.20;;;;;;5003615;28;20056;-12
2022/11/09 11:15:27;;;;;;;0.47;0.35;;;18.90;69.20;;;;;;5003602;28;20045;-13
2022/11/09 11:18:03;;;;;;;0.17;0.10;;;18.90;69.20;;;;;;5007639;28;20057;-13
2022/11/09 11:20:29;;;;;;;0.45;0.17;;;18.90;69.10;;;;;;5009390;28;20058;-13
2022/11/09 11:23:12;;;;;;;0.57;0.30;;;18.90;69.10;;;;;;5000115;28;20560;-13
2022/11/09 11:25:52;;;;;;;0.40;0.10;;;18.90;69.10;;;;;;5011843;28;20108;-13
2022/11/09 11:28:38;;;;;;;0.15;0.10;;;18.90;69.10;;;;;;5010158;28;20111;-13
2022/11/09 11:31:05;;;;;;;0.30;0.20;;;18.90;69.00;;;;;;5006833;28;20065;-13
2022/11/09 11:33:31;;;;;;;0.40;0.20;;;18.90;69.10;;;;;;5015010;28;20065;-13
2022/11/09 11:36:21;;;;;;;0.30;0.10;;;18.90;69.00;;;;;;5004113;28;20034;-12
2022/11/09 11:38:49;;;;;;;0.20;0.20;;;18.90;69.00;;;;;;4983875;28;20116;-13
2022/11/09 11:41:38;;;;;;;0.63;0.30;;;18.90;69.00;;;;;;5003794;28;20029;-13
2022/11/09 11:44:37;;;;;;;0.30;0.13;;;18.90;69.10;;;;;;5016708;28;20442;-13
2022/11/09 11:47:32;;;;;;;0.57;0.30;;;18.90;69.00;;;;;;5014610;28;20058;-13
2022/11/09 11:49:58;;;;;;;1.00;0.10;;;18.90;68.90;;;;;;5004833;28;20026;-13
2022/11/09 11:52:44;;;;;;;0.47;0.20;;;18.90;69.00;;;;;;5013362;28;20048;-12
2022/11/09 11:55:18;;;;;;;0.47;0.17;;;19.00;69.00;;;;;;5000632;28;20103;-12
2022/11/09 11:58:03;;;;;;;;;;;19.00;68.90;;;;;;5015058;28;20085;-16
2022/11/09 12:00:28;;;;;;;0.30;0.10;;;19.00;68.80;;;;;;4997087;28;19918;-13
2022/11/09 12:03:25;;;;;;;0.30;0.30;;;19.10;68.70;;;;;;5011282;28;20038;-12
2022/11/09 12:06:15;;;;;;;0.35;0.10;;;19.10;68.60;;;;;;5009496;28;20089;-14
2022/11/09 12:09:00;;;;;;;0.50;0.45;;;19.20;68.30;;;;;;4992023;28;20050;-13
2022/11/09 12:11:44;;;;;;;0.30;0.30;;;19.30;67.80;;;;;;4992633;28;20039;-13
2022/11/09 12:14:28;;;;;;;0.22;0.10;;;19.30;68.10;;;;;;4997928;28;21258;-13
2022/11/09 12:17:09;;;;;;;0.43;0.17;;;19.20;67.90;;;;;;4996796;28;20057;-13
2022/11/09 12:20:02;;;;;;;0.17;0.17;;;19.20;68.10;;;;;;4992385;28;20045;-15
2022/11/09 12:22:40;;;;;;;0.40;0.17;;;19.30;67.90;;;;;;4997160;28;20092;-13
2022/11/09 12:25:17;;;;;;;0.20;0.10;;;19.30;67.70;;;;;;5004972;28;20030;-13
2022/11/09 12:28:00;;;;;;;0.13;0.13;;;19.20;68.00;;;;;;4995520;28;20044;-15
2022/11/09 12:30:49;;;;;;;0.32;0.13;;;19.20;68.30;;;;;;5014815;28;20042;-13
2022/11/09 12:33:18;;;;;;;0.15;0.10;;;19.10;68.50;;;;;;5000545;28;20128;-13
2022/11/09 12:35:49;;;;;;;0.25;0.10;;;19.10;68.40;;;;;;5023091;28;20038;-13
2022/11/09 12:38:20;;;;;;;0.17;0.10;;;19.10;68.50;;;;;;5008429;28;20061;-13
2022/11/09 12:41:04;;;;;;;0.10;0.10;;;19.10;68.40;;;;;;5022937;28;20120;-13
2022/11/09 12:43:46;;;;;;;0.47;0.20;;;19.10;68.40;;;;;;4993304;28;20042;-37
2022/11/09 12:46:12;;;;;;;0.45;0.30;;;19.10;68.40;;;;;;5025420;28;20042;-33
2022/11/09 12:48:38;;;;;;;0.55;0.20;;;19.10;68.40;;;;;;5029409;28;20061;-38
2022/11/09 12:51:04;;;;;;;0.40;0.20;;;19.10;68.50;;;;;;5029589;28;20049;-35
2022/11/09 12:53:36;;;;;;;0.30;0.20;;;19.10;68.50;;;;;;5012353;28;20050;-37
2022/11/09 12:56:23;;;;;;;0.57;0.15;;;19.10;68.40;;;;;;5012872;28;20041;-38
2022/11/09 12:58:49;;;;;;;0.45;0.15;;;19.10;68.50;;;;;;5024454;28;20038;-32